Time;durP1;ratioP1;P1;durP2;ratioP2;P2;SDS_P1;SDS_P2;PMS_P1;PMS_P2;Temp;Humidity;BMP_temperature;BMP_pressure;BME280_temperature;BME280_humidity;BME280_pressure;Samples;Min_cycle;Max_cycle;Signal;HPM_P1;HPM_P2
2023/07/08 00:01:54;;;;;;;0.00;0.00;;;;;;;27.34;41.49;101916.28;5002583;28;20057;-61
2023/07/08 00:04:19;;;;;;;0.00;0.00;;;;;;;27.43;41.76;101920.75;5007319;28;20034;-61
2023/07/08 00:06:44;;;;;;;0.00;0.00;;;;;;;27.48;42.08;101922.56;4996890;28;20037;-61
2023/07/08 00:09:11;;;;;;;0.00;0.00;;;;;;;27.26;42.31;101919.75;4998029;28;20033;-60
2023/07/08 00:11:37;;;;;;;0.00;0.00;;;;;;;27.27;42.45;101916.66;5012332;28;20041;-61
2023/07/08 00:14:02;;;;;;;0.00;0.00;;;;;;;27.01;42.25;101915.59;5012563;28;20042;-62
2023/07/08 00:16:27;;;;;;;0.00;0.00;;;;;;;27.30;41.71;101916.03;5012808;28;20050;-60
2023/07/08 00:18:53;;;;;;;0.00;0.00;;;;;;;26.86;43.38;101907.66;4992560;28;20048;-61
2023/07/08 00:21:18;;;;;;;0.00;0.00;;;;;;;26.86;43.13;101908.47;4997551;28;20521;-61
2023/07/08 00:23:45;;;;;;;0.00;0.00;;;;;;;27.13;42.36;101906.78;5002154;28;20099;-60
2023/07/08 00:26:18;;;;;;;0.00;0.00;;;;;;;27.14;42.48;101912.00;4999428;28;20030;-61
2023/07/08 00:28:43;;;;;;;0.00;0.00;;;;;;;27.00;42.75;101905.69;5009063;28;20078;-62
2023/07/08 00:31:13;;;;;;;0.00;0.00;;;;;;;26.85;43.63;101908.75;4998038;28;20231;-60
2023/07/08 00:33:39;;;;;;;0.00;0.00;;;;;;;26.65;43.86;101901.69;5004326;28;20109;-61
2023/07/08 00:36:10;;;;;;;0.00;0.00;;;;;;;26.99;43.36;101901.28;5004754;28;20037;-61
2023/07/08 00:38:36;;;;;;;0.00;0.00;;;;;;;26.86;43.86;101904.91;5011945;28;20128;-61
2023/07/08 00:41:01;;;;;;;0.00;0.00;;;;;;;26.97;43.75;101902.75;5008274;28;20045;-60
2023/07/08 00:43:38;;;;;;;0.00;0.00;;;;;;;26.73;43.71;101901.00;5005125;28;20109;-60
2023/07/08 00:46:23;;;;;;;0.00;0.00;;;;;;;26.90;43.52;101901.22;5012115;28;20040;-61
2023/07/08 00:48:51;;;;;;;0.00;0.00;;;;;;;26.67;43.16;101899.44;4996503;28;20026;-60
2023/07/08 00:51:19;;;;;;;0.00;0.00;;;;;;;26.74;43.12;101897.16;4988991;28;20034;-60
2023/07/08 00:53:45;;;;;;;0.00;0.00;;;;;;;26.81;43.10;101902.25;5002177;28;20490;-61
2023/07/08 00:56:23;;;;;;;0.00;0.00;;;;;;;26.61;43.42;101886.88;4999421;28;20054;-61
2023/07/08 00:58:58;;;;;;;0.00;0.00;;;;;;;26.69;43.76;101882.63;5008422;28;20050;-60
2023/07/08 01:01:25;;;;;;;0.00;0.00;;;;;;;26.63;43.36;101881.88;5013924;28;20065;-61
2023/07/08 01:03:56;;;;;;;0.00;0.00;;;;;;;26.63;43.84;101887.41;5016046;28;20033;-61
2023/07/08 01:06:23;;;;;;;;;;;;;;;26.75;43.49;101879.47;5018207;28;20124;-62
2023/07/08 01:08:52;;;;;;;0.10;0.10;;;;;;;26.52;43.57;101879.63;4995162;28;19921;-61
2023/07/08 01:11:21;;;;;;;0.00;0.00;;;;;;;26.55;43.39;101868.84;5011570;28;20141;-60
2023/07/08 01:13:50;;;;;;;0.00;0.00;;;;;;;26.36;44.49;101870.84;5011715;28;20042;-59
2023/07/08 01:16:16;;;;;;;0.00;0.00;;;;;;;26.44;43.89;101866.56;5011689;28;20129;-60
2023/07/08 01:18:42;;;;;;;0.00;0.00;;;;;;;26.46;44.03;101859.63;4995846;28;20610;-65
2023/07/08 01:21:33;;;;;;;0.00;0.00;;;;;;;26.42;44.13;101868.81;5010300;28;20181;-60
2023/07/08 01:24:01;;;;;;;0.00;0.00;;;;;;;26.40;43.83;101862.78;5003608;28;20045;-62
2023/07/08 01:26:30;;;;;;;0.00;0.00;;;;;;;26.38;43.70;101867.81;5011656;28;20029;-62
2023/07/08 01:28:56;;;;;;;0.00;0.00;;;;;;;26.21;44.89;101867.59;4995036;28;20046;-64
2023/07/08 01:31:23;;;;;;;0.00;0.00;;;;;;;26.24;44.55;101867.00;5005293;28;20030;-60
2023/07/08 01:33:50;;;;;;;0.00;0.00;;;;;;;26.08;44.67;101872.75;5004751;28;20473;-62
2023/07/08 01:36:17;;;;;;;0.00;0.00;;;;;;;26.21;45.07;101868.41;4997731;28;20071;-61
2023/07/08 01:38:43;;;;;;;0.00;0.00;;;;;;;26.25;44.77;101869.44;5007696;28;20037;-60
2023/07/08 01:41:12;;;;;;;0.00;0.00;;;;;;;26.03;44.98;101858.25;4996368;28;20068;-61
2023/07/08 01:43:38;;;;;;;0.00;0.00;;;;;;;26.05;44.74;101869.78;5002866;28;20871;-62
2023/07/08 01:46:11;;;;;;;0.00;0.00;;;;;;;25.94;45.05;101857.31;5006698;28;20125;-60
2023/07/08 01:48:39;;;;;;;0.00;0.00;;;;;;;25.88;45.02;101853.84;5011593;28;20100;-62
2023/07/08 01:51:06;;;;;;;0.00;0.00;;;;;;;25.80;45.26;101849.03;4995612;28;20026;-61
2023/07/08 01:53:35;;;;;;;0.00;0.00;;;;;;;26.00;44.58;101845.88;5002909;28;20403;-60
2023/07/08 01:56:00;;;;;;;0.00;0.00;;;;;;;26.02;44.66;101843.66;5002849;28;20382;-61
2023/07/08 01:58:26;;;;;;;0.00;0.00;;;;;;;25.94;44.99;101835.28;4995999;28;20034;-62
2023/07/08 02:00:51;;;;;;;0.00;0.00;;;;;;;25.98;44.67;101836.31;5020906;28;20088;-60
2023/07/08 02:03:17;;;;;;;0.00;0.00;;;;;;;25.79;45.34;101827.28;5005324;28;20023;-61
2023/07/08 02:05:42;;;;;;;0.00;0.00;;;;;;;25.81;45.18;101831.38;5000577;28;20033;-62
2023/07/08 02:08:09;;;;;;;0.00;0.00;;;;;;;25.62;45.60;101838.06;5009472;28;20034;-62
2023/07/08 02:10:34;;;;;;;0.00;0.00;;;;;;;25.41;46.38;101834.00;5010908;28;20045;-61
2023/07/08 02:12:59;;;;;;;0.00;0.00;;;;;;;25.56;46.63;101831.81;5010557;28;20041;-62
2023/07/08 02:15:26;;;;;;;0.00;0.00;;;;;;;25.56;45.63;101831.81;5004446;28;20157;-62
2023/07/08 02:17:51;;;;;;;0.00;0.00;;;;;;;25.30;46.99;101838.03;4996656;28;20507;-61
2023/07/08 02:20:16;;;;;;;0.00;0.00;;;;;;;25.47;46.19;101830.06;5004494;28;20044;-61
2023/07/08 02:22:42;;;;;;;0.00;0.00;;;;;;;25.40;46.05;101826.84;5008490;28;20069;-60
2023/07/08 02:25:09;;;;;;;0.00;0.00;;;;;;;25.38;46.37;101816.13;4995739;28;20029;-60
2023/07/08 02:27:35;;;;;;;0.00;0.00;;;;;;;25.41;46.56;101828.50;5003302;28;20077;-61
2023/07/08 02:30:00;;;;;;;0.00;0.00;;;;;;;25.41;45.92;101820.25;5002597;28;20189;-60
2023/07/08 02:32:26;;;;;;;0.00;0.00;;;;;;;25.50;46.06;101815.69;4997448;28;20062;-61
2023/07/08 02:34:52;;;;;;;0.00;0.00;;;;;;;25.17;47.00;101807.38;5010942;28;20092;-60
2023/07/08 02:37:17;;;;;;;0.00;0.00;;;;;;;25.16;46.73;101805.75;5018782;28;20077;-61
2023/07/08 02:39:43;;;;;;;0.00;0.00;;;;;;;25.12;46.50;101790.13;5000218;28;20041;-60
2023/07/08 02:42:08;;;;;;;0.00;0.00;;;;;;;25.14;46.69;101790.63;4997110;28;20487;-61
2023/07/08 02:44:34;;;;;;;0.00;0.00;;;;;;;25.07;47.10;101788.28;5028319;28;20039;-60
2023/07/08 02:47:00;;;;;;;0.00;0.00;;;;;;;25.23;46.12;101781.44;5010242;28;20030;-63
2023/07/08 02:49:25;;;;;;;0.00;0.00;;;;;;;25.16;46.43;101788.41;5003485;28;20045;-59
2023/07/08 02:51:51;;;;;;;0.00;0.00;;;;;;;25.06;46.77;101788.59;5001388;28;20514;-61
2023/07/08 02:54:16;;;;;;;0.00;0.00;;;;;;;25.11;46.48;101789.31;4996607;28;20053;-63
2023/07/08 02:56:41;;;;;;;0.00;0.00;;;;;;;25.11;46.66;101780.25;5016092;28;20048;-60
2023/07/08 02:59:07;;;;;;;0.10;0.10;;;;;;;24.94;46.78;101783.53;5005616;28;20038;-60
2023/07/08 03:01:33;;;;;;;0.00;0.00;;;;;;;25.05;46.63;101790.53;4990541;28;20042;-62
2023/07/08 03:04:00;;;;;;;0.00;0.00;;;;;;;24.91;47.38;101786.88;5002072;28;20080;-62
2023/07/08 03:06:25;;;;;;;0.00;0.00;;;;;;;24.75;47.25;101779.13;5014440;28;20343;-61
2023/07/08 03:08:51;;;;;;;0.08;0.08;;;;;;;24.98;47.03;101795.56;5011999;28;20041;-60
2023/07/08 03:11:16;;;;;;;0.00;0.00;;;;;;;25.07;46.38;101792.97;5006172;28;20037;-61
2023/07/08 03:13:42;;;;;;;0.00;0.00;;;;;;;24.83;47.35;101786.72;5013938;28;20068;-63
2023/07/08 03:16:12;;;;;;;0.00;0.00;;;;;;;24.83;47.33;101790.28;5014165;28;20033;-61
2023/07/08 03:18:45;;;;;;;0.00;0.00;;;;;;;24.75;47.48;101785.47;5008571;28;20524;-60
2023/07/08 03:21:13;;;;;;;0.10;0.10;;;;;;;24.79;46.85;101783.75;5008991;28;20372;-61
2023/07/08 03:23:38;;;;;;;0.00;0.00;;;;;;;24.80;47.38;101787.34;5002831;28;20053;-62
2023/07/08 03:26:04;;;;;;;0.00;0.00;;;;;;;24.77;47.13;101782.41;5010362;28;20044;-61
2023/07/08 03:28:29;;;;;;;0.00;0.00;;;;;;;24.84;47.03;101778.19;5014044;28;20038;-62
2023/07/08 03:30:55;;;;;;;0.00;0.00;;;;;;;24.81;47.43;101778.78;4993658;28;20430;-61
2023/07/08 03:33:20;;;;;;;0.00;0.00;;;;;;;24.88;47.19;101778.41;5003004;28;20017;-61
2023/07/08 03:35:46;;;;;;;0.00;0.00;;;;;;;24.74;47.65;101785.75;5012904;28;20556;-62
2023/07/08 03:38:11;;;;;;;0.05;0.05;;;;;;;24.57;48.55;101780.72;5013740;28;20121;-61
2023/07/08 03:40:37;;;;;;;0.05;0.05;;;;;;;24.62;47.48;101777.94;4997431;28;20438;-63
2023/07/08 03:43:02;;;;;;;0.10;0.10;;;;;;;24.67;47.39;101772.34;5016368;28;20030;-60
2023/07/08 03:45:28;;;;;;;0.00;0.00;;;;;;;24.80;47.52;101781.84;5014100;28;20057;-60
2023/07/08 03:47:53;;;;;;;0.00;0.00;;;;;;;24.77;47.54;101779.66;5003159;28;20066;-62
2023/07/08 03:50:22;;;;;;;0.00;0.00;;;;;;;24.60;48.22;101782.06;5007905;28;20038;-61
2023/07/08 03:52:48;;;;;;;0.00;0.00;;;;;;;24.54;48.16;101788.75;5012885;28;20045;-60
2023/07/08 03:55:14;;;;;;;0.00;0.00;;;;;;;24.62;47.21;101788.94;5008193;28;20045;-62
2023/07/08 03:57:39;;;;;;;0.00;0.00;;;;;;;24.58;47.80;101798.88;5003111;28;20069;-61
2023/07/08 04:00:09;;;;;;;0.03;0.03;;;;;;;24.63;47.81;101800.75;4990172;28;20026;-61
2023/07/08 04:02:35;;;;;;;0.00;0.00;;;;;;;24.70;47.26;101787.44;5010781;28;20033;-61
2023/07/08 04:05:01;;;;;;;0.03;0.03;;;;;;;24.74;47.67;101794.00;4999911;28;20054;-60
2023/07/08 04:07:27;;;;;;;0.10;0.10;;;;;;;24.73;47.20;101787.69;5012846;28;20036;-63
2023/07/08 04:09:52;;;;;;;0.00;0.00;;;;;;;24.67;47.81;101791.59;5013168;28;20548;-59
2023/07/08 04:12:17;;;;;;;0.00;0.00;;;;;;;24.64;47.64;101797.69;5012846;28;20026;-62
2023/07/08 04:14:43;;;;;;;0.00;0.00;;;;;;;24.78;47.33;101800.56;5012365;28;20478;-61
2023/07/08 04:17:09;;;;;;;0.00;0.00;;;;;;;24.92;47.09;101795.97;5008295;28;20480;-59
2023/07/08 04:19:35;;;;;;;0.10;0.10;;;;;;;24.98;46.94;101795.56;5012239;28;20038;-61
2023/07/08 04:22:02;;;;;;;0.00;0.00;;;;;;;24.97;47.19;101807.69;5001107;28;20692;-61
2023/07/08 04:24:27;;;;;;;0.00;0.00;;;;;;;24.88;47.65;101795.75;5008844;28;20034;-61
2023/07/08 04:26:53;;;;;;;0.00;0.00;;;;;;;24.74;47.63;101794.84;4996553;28;20053;-60
2023/07/08 04:29:20;;;;;;;0.00;0.00;;;;;;;24.83;47.91;101797.72;5011508;28;20033;-61
2023/07/08 04:31:46;;;;;;;0.05;0.05;;;;;;;25.03;47.06;101798.25;5011737;28;20069;-61
2023/07/08 04:34:13;;;;;;;0.00;0.00;;;;;;;25.01;47.23;101802.41;4999180;28;20030;-61
2023/07/08 04:36:39;;;;;;;0.00;0.00;;;;;;;25.05;46.42;101806.19;5024569;28;20022;-61
2023/07/08 04:39:06;;;;;;;0.00;0.00;;;;;;;25.01;47.23;101803.22;4996781;28;20033;-61
2023/07/08 04:41:31;;;;;;;0.00;0.00;;;;;;;25.09;46.88;101807.25;5004838;28;20038;-61
2023/07/08 04:43:57;;;;;;;0.00;0.00;;;;;;;25.26;46.24;101813.84;5003778;28;20029;-61
2023/07/08 04:46:47;;;;;;;0.00;0.00;;;;;;;25.36;46.69;101807.34;4997555;28;20034;-60
2023/07/08 04:49:13;;;;;;;0.00;0.00;;;;;;;24.68;47.74;101796.00;4941338;29;20086;-60
2023/07/08 04:51:40;;;;;;;0.00;0.00;;;;;;;25.09;47.28;101805.31;4943100;29;20043;-61
2023/07/08 04:54:06;;;;;;;0.00;0.00;;;;;;;25.24;46.73;101804.25;4943893;29;20066;-61
2023/07/08 04:56:43;;;;;;;0.00;0.00;;;;;;;25.40;45.66;101793.81;4943662;29;20039;-60
2023/07/08 04:59:14;;;;;;;0.00;0.00;;;;;;;25.09;46.85;101797.06;4932268;29;20039;-62
2023/07/08 05:01:40;;;;;;;0.03;0.03;;;;;;;25.28;46.42;101797.03;4931954;29;20051;-61
2023/07/08 05:04:07;;;;;;;0.00;0.00;;;;;;;25.27;46.55;101800.91;4943703;29;20110;-60
2023/07/08 05:06:34;;;;;;;0.00;0.00;;;;;;;25.41;46.26;101799.06;4951181;29;20593;-62
2023/07/08 05:09:00;;;;;;;0.00;0.00;;;;;;;25.54;46.18;101805.69;4935010;29;20072;-61
2023/07/08 05:11:25;;;;;;;0.00;0.00;;;;;;;25.60;45.78;101799.00;4950383;29;20042;-61
2023/07/08 05:13:51;;;;;;;0.00;0.00;;;;;;;25.59;46.09;101803.66;4948357;28;20062;-61
2023/07/08 05:16:16;;;;;;;0.00;0.00;;;;;;;25.54;47.01;101806.53;4957715;28;20097;-61
2023/07/08 05:18:42;;;;;;;0.00;0.00;;;;;;;25.57;46.93;101799.63;4952268;28;20051;-60
2023/07/08 05:21:09;;;;;;;0.00;0.00;;;;;;;25.58;47.37;101807.56;4937104;29;20054;-61
2023/07/08 05:23:34;;;;;;;0.00;0.00;;;;;;;25.70;47.33;101796.06;4943221;29;20047;-63
2023/07/08 05:26:01;;;;;;;0.00;0.00;;;;;;;25.92;45.84;101799.78;4966957;28;20442;-61
2023/07/08 05:28:26;;;;;;;0.00;0.00;;;;;;;25.68;45.57;101796.38;5010872;28;20022;-61
2023/07/08 05:30:56;;;;;;;0.00;0.00;;;;;;;25.86;44.80;101802.94;5010368;28;20022;-61
2023/07/08 05:33:23;;;;;;;0.00;0.00;;;;;;;26.13;44.83;101805.72;5005660;28;20034;-62
2023/07/08 05:35:49;;;;;;;0.00;0.00;;;;;;;26.22;44.50;101798.38;5002048;28;20037;-60
2023/07/08 05:38:14;;;;;;;0.00;0.00;;;;;;;26.38;43.75;101798.91;5013189;28;20049;-61
2023/07/08 05:40:39;;;;;;;0.00;0.00;;;;;;;26.25;43.82;101797.78;5008240;28;20088;-60
2023/07/08 05:43:05;;;;;;;0.00;0.00;;;;;;;25.87;44.34;101797.09;4996123;28;20057;-61
2023/07/08 05:45:30;;;;;;;0.00;0.00;;;;;;;26.31;44.26;101791.03;5014179;28;20060;-61
2023/07/08 05:47:56;;;;;;;0.00;0.00;;;;;;;26.37;43.59;101789.81;5000572;28;20499;-61
2023/07/08 05:50:21;;;;;;;0.00;0.00;;;;;;;26.64;42.66;101788.94;5005869;28;20034;-61
2023/07/08 05:52:47;;;;;;;0.00;0.00;;;;;;;26.55;42.87;101790.81;5010904;28;20042;-61
2023/07/08 05:55:12;;;;;;;0.00;0.00;;;;;;;26.54;42.63;101787.22;5011345;28;20021;-59
2023/07/08 05:57:37;;;;;;;0.00;0.00;;;;;;;26.68;42.45;101793.53;5002853;28;20042;-59
2023/07/08 06:00:04;;;;;;;0.00;0.00;;;;;;;26.66;42.81;101792.22;5003509;28;20042;-61
2023/07/08 06:02:30;;;;;;;0.00;0.00;;;;;;;26.43;43.02;101793.28;4995773;28;20483;-61
2023/07/08 06:04:55;;;;;;;0.00;0.00;;;;;;;26.83;42.54;101784.13;5007768;28;20030;-61
2023/07/08 06:07:20;;;;;;;0.00;0.00;;;;;;;26.87;42.21;101788.72;4998220;28;20030;-62
2023/07/08 06:09:46;;;;;;;0.00;0.00;;;;;;;27.06;41.62;101787.72;5001868;28;20034;-61
2023/07/08 06:12:12;;;;;;;0.00;0.00;;;;;;;27.04;41.72;101790.00;5010152;28;20066;-60
2023/07/08 06:14:38;;;;;;;0.00;0.00;;;;;;;27.22;41.02;101794.53;5019145;28;20026;-60
2023/07/08 06:17:04;;;;;;;0.00;0.00;;;;;;;27.18;41.70;101786.06;5023782;28;20124;-60
2023/07/08 06:19:29;;;;;;;0.00;0.00;;;;;;;27.30;41.28;101789.03;5011175;28;20030;-59
2023/07/08 06:21:55;;;;;;;0.00;0.00;;;;;;;27.32;41.49;101780.47;5009245;28;20060;-60
2023/07/08 06:24:20;;;;;;;0.00;0.00;;;;;;;27.47;41.11;101789.22;4979380;28;20026;-60
2023/07/08 06:26:46;;;;;;;0.00;0.00;;;;;;;27.35;40.78;101783.44;5010490;28;20067;-60
2023/07/08 06:29:11;;;;;;;0.00;0.00;;;;;;;27.39;40.81;101778.09;5010722;28;20514;-61
2023/07/08 06:31:37;;;;;;;0.00;0.00;;;;;;;27.63;40.70;101781.34;5015125;28;20136;-61
2023/07/08 06:34:03;;;;;;;0.00;0.00;;;;;;;27.61;40.72;101770.63;5010648;28;20081;-60
2023/07/08 06:36:29;;;;;;;0.00;0.00;;;;;;;27.85;40.04;101769.44;4995938;28;20081;-61
2023/07/08 06:38:55;;;;;;;0.00;0.00;;;;;;;27.72;40.37;101771.16;5008492;28;20038;-60
2023/07/08 06:41:20;;;;;;;0.00;0.00;;;;;;;27.70;40.74;101765.94;5002109;28;20034;-60
2023/07/08 06:43:46;;;;;;;0.00;0.00;;;;;;;28.05;39.07;101764.16;5004701;28;20038;-60
2023/07/08 06:46:11;;;;;;;0.00;0.00;;;;;;;28.03;39.49;101762.88;5007641;28;20509;-61
2023/07/08 06:48:37;;;;;;;0.00;0.00;;;;;;;28.23;39.48;101776.91;5002936;28;20485;-60
2023/07/08 06:51:02;;;;;;;0.00;0.00;;;;;;;28.14;39.44;101780.78;5014156;28;20034;-61
2023/07/08 06:53:28;;;;;;;0.00;0.00;;;;;;;28.35;38.76;101779.88;5006971;28;20116;-60
2023/07/08 06:55:53;;;;;;;0.00;0.00;;;;;;;28.38;39.76;101772.91;5005440;28;20075;-61
2023/07/08 06:58:18;;;;;;;0.00;0.00;;;;;;;28.51;38.87;101767.22;5008547;28;20041;-60
2023/07/08 07:00:45;;;;;;;0.00;0.00;;;;;;;28.66;38.31;101773.47;4999173;28;20041;-60
2023/07/08 07:03:11;;;;;;;0.00;0.00;;;;;;;28.64;38.15;101768.22;5010768;28;20036;-61
2023/07/08 07:05:37;;;;;;;0.00;0.00;;;;;;;28.76;38.20;101767.59;5000884;28;20041;-60
2023/07/08 07:08:04;;;;;;;0.00;0.00;;;;;;;28.37;39.37;101765.72;5004289;28;20085;-60
2023/07/08 07:10:29;;;;;;;0.00;0.00;;;;;;;29.00;37.80;101760.44;5007436;28;20038;-59
2023/07/08 07:12:55;;;;;;;0.00;0.00;;;;;;;28.97;38.00;101757.53;5013706;28;20512;-61
2023/07/08 07:15:20;;;;;;;0.00;0.00;;;;;;;28.64;37.60;101774.59;5027484;28;20025;-60
2023/07/08 07:17:45;;;;;;;0.00;0.00;;;;;;;29.14;37.64;101774.97;5008441;28;20045;-60
2023/07/08 07:20:11;;;;;;;0.00;0.00;;;;;;;29.19;37.39;101772.00;5013681;28;20038;-61
2023/07/08 07:22:37;;;;;;;0.00;0.00;;;;;;;29.00;37.57;101777.06;5010099;28;20042;-60
2023/07/08 07:25:03;;;;;;;0.00;0.00;;;;;;;28.96;37.66;101772.47;5012432;28;20022;-61
2023/07/08 07:27:28;;;;;;;0.00;0.00;;;;;;;28.96;37.13;101775.25;5010838;28;20026;-60
2023/07/08 07:29:54;;;;;;;0.00;0.00;;;;;;;29.56;36.46;101772.44;5010872;28;20179;-60
2023/07/08 07:32:23;;;;;;;0.00;0.00;;;;;;;29.76;36.09;101767.00;5015499;28;20076;-60
2023/07/08 07:34:49;;;;;;;0.00;0.00;;;;;;;29.57;36.63;101769.34;4993674;28;20034;-60
2023/07/08 07:37:17;;;;;;;0.00;0.00;;;;;;;29.81;36.19;101766.84;5011223;28;20433;-59
2023/07/08 07:39:43;;;;;;;0.00;0.00;;;;;;;29.93;35.87;101768.91;5012642;28;20061;-58
2023/07/08 07:42:09;;;;;;;0.00;0.00;;;;;;;29.70;36.85;101773.06;5011688;28;20030;-59
2023/07/08 07:44:35;;;;;;;0.00;0.00;;;;;;;30.02;35.46;101766.91;5010169;28;20050;-58
2023/07/08 07:47:02;;;;;;;0.00;0.00;;;;;;;29.94;35.82;101764.97;4990989;28;20859;-58
2023/07/08 07:49:28;;;;;;;0.00;0.00;;;;;;;30.17;35.61;101761.59;5014141;28;20044;-59
2023/07/08 07:51:53;;;;;;;0.00;0.00;;;;;;;30.30;35.19;101768.09;5011736;28;20449;-60
2023/07/08 07:54:19;;;;;;;0.00;0.00;;;;;;;30.33;35.40;101763.84;5011805;28;20033;-60
2023/07/08 07:56:44;;;;;;;0.00;0.00;;;;;;;30.14;35.55;101780.88;5012324;28;20712;-59
2023/07/08 07:59:10;;;;;;;0.00;0.00;;;;;;;30.58;35.06;101780.34;5012180;28;20041;-59
2023/07/08 08:01:36;;;;;;;0.00;0.00;;;;;;;30.62;35.13;101774.91;5011396;28;20042;-60
2023/07/08 08:04:01;;;;;;;0.00;0.00;;;;;;;30.83;34.95;101768.25;5017728;28;20025;-59
2023/07/08 08:06:27;;;;;;;0.00;0.00;;;;;;;30.12;36.59;101767.34;5014037;28;20083;-59
2023/07/08 08:08:52;;;;;;;0.00;0.00;;;;;;;30.78;35.72;101773.97;5012317;28;20034;-58
2023/07/08 08:11:18;;;;;;;0.00;0.00;;;;;;;30.48;35.80;101775.19;5012233;28;20378;-58
2023/07/08 08:13:43;;;;;;;0.00;0.00;;;;;;;30.70;35.04;101779.59;5011736;28;20034;-59
2023/07/08 08:16:08;;;;;;;0.00;0.00;;;;;;;30.82;34.78;101777.69;5011403;28;20030;-59
2023/07/08 08:18:34;;;;;;;0.00;0.00;;;;;;;29.95;37.18;101766.63;5026910;28;20536;-60
2023/07/08 08:21:00;;;;;;;0.00;0.00;;;;;;;31.00;34.29;101770.88;5010173;28;20135;-59
2023/07/08 08:23:25;;;;;;;0.00;0.00;;;;;;;30.99;34.28;101771.22;5011451;28;20077;-59
2023/07/08 08:25:51;;;;;;;0.00;0.00;;;;;;;31.40;34.20;101765.63;5011710;28;20053;-59
2023/07/08 08:28:16;;;;;;;0.00;0.00;;;;;;;31.47;34.08;101768.63;5011488;28;20041;-58
2023/07/08 08:30:47;;;;;;;0.00;0.00;;;;;;;31.28;34.02;101764.72;4994318;28;20022;-59
2023/07/08 08:33:12;;;;;;;0.00;0.00;;;;;;;31.78;33.05;101768.94;5010630;28;20030;-59
2023/07/08 08:35:38;;;;;;;0.00;0.00;;;;;;;32.11;32.86;101768.06;5011389;28;20041;-58
2023/07/08 08:38:04;;;;;;;0.00;0.00;;;;;;;31.32;34.91;101763.72;5010860;28;20034;-60
2023/07/08 08:40:31;;;;;;;0.00;0.00;;;;;;;31.95;33.18;101763.19;5011055;28;20072;-59
2023/07/08 08:43:04;;;;;;;0.00;0.00;;;;;;;32.23;32.81;101765.28;5010086;28;20021;-57
2023/07/08 08:45:37;;;;;;;0.00;0.00;;;;;;;32.28;32.48;101759.47;5009300;28;20034;-58
2023/07/08 08:48:06;;;;;;;0.00;0.00;;;;;;;32.25;33.18;101755.44;5009049;28;20084;-60
2023/07/08 08:50:33;;;;;;;0.00;0.00;;;;;;;32.79;32.25;101751.16;5011412;28;20038;-60
2023/07/08 08:53:01;;;;;;;0.00;0.00;;;;;;;31.83;33.01;101762.34;5011449;28;20478;-58
2023/07/08 08:55:28;;;;;;;0.00;0.00;;;;;;;32.53;32.60;101753.53;5012600;28;20054;-59
2023/07/08 08:58:17;;;;;;;0.00;0.00;;;;;;;33.10;32.04;101747.69;5017296;28;20021;-59
2023/07/08 09:00:45;;;;;;;0.00;0.00;;;;;;;32.64;31.52;101756.66;5012167;28;20172;-58
2023/07/08 09:03:15;;;;;;;0.00;0.00;;;;;;;33.23;31.27;101746.50;5011766;28;20565;-59
2023/07/08 09:05:42;;;;;;;;;;;;;;;33.72;30.64;101757.34;5011621;28;20513;-61
2023/07/08 09:08:20;;;;;;;0.00;0.00;;;;;;;33.83;30.04;101744.50;5011117;28;19952;-59
2023/07/08 09:10:59;;;;;;;0.00;0.00;;;;;;;33.84;30.62;101744.16;5010683;28;20030;-60
2023/07/08 09:13:32;;;;;;;0.00;0.00;;;;;;;33.48;30.76;101741.59;5010809;28;20746;-60
2023/07/08 09:16:26;;;;;;;0.00;0.00;;;;;;;33.93;30.53;101743.94;5010075;28;20429;-59
2023/07/08 09:19:06;;;;;;;0.00;0.00;;;;;;;33.82;31.21;101748.47;5011029;28;20021;-60
2023/07/08 09:21:41;;;;;;;0.00;0.00;;;;;;;34.08;30.60;101746.78;5010111;28;20205;-60
2023/07/08 09:24:18;;;;;;;0.00;0.00;;;;;;;33.98;31.06;101752.09;5010410;28;20061;-60
2023/07/08 09:26:46;;;;;;;0.00;0.00;;;;;;;34.45;30.26;101748.03;5010669;28;20041;-60
2023/07/08 09:29:11;;;;;;;0.00;0.00;;;;;;;34.36;30.80;101750.22;5008360;28;20038;-59
2023/07/08 09:31:39;;;;;;;0.00;0.00;;;;;;;34.66;29.55;101747.72;5010144;28;20053;-61
2023/07/08 09:34:15;;;;;;;0.00;0.00;;;;;;;34.50;29.79;101749.75;5010170;28;20037;-60
2023/07/08 09:36:43;;;;;;;0.00;0.00;;;;;;;34.78;29.04;101758.75;5011187;28;20030;-60
2023/07/08 09:39:15;;;;;;;0.00;0.00;;;;;;;34.71;29.20;101758.59;5010221;28;20041;-60
2023/07/08 09:41:43;;;;;;;0.00;0.00;;;;;;;35.10;29.02;101751.88;4993669;28;20041;-59
2023/07/08 09:44:29;;;;;;;0.00;0.00;;;;;;;34.85;27.97;101758.09;5012689;28;20038;-61
2023/07/08 09:46:57;;;;;;;0.00;0.00;;;;;;;34.68;28.88;101764.91;5014016;28;20511;-60
2023/07/08 09:49:33;;;;;;;0.00;0.00;;;;;;;35.48;27.82;101748.22;5014697;28;20034;-60
2023/07/08 09:51:59;;;;;;;0.00;0.00;;;;;;;34.86;28.95;101749.34;5011199;28;20026;-59
2023/07/08 09:54:26;;;;;;;0.00;0.00;;;;;;;35.16;27.97;101741.19;5010178;28;20049;-61
2023/07/08 09:56:57;;;;;;;0.00;0.00;;;;;;;35.23;27.95;101741.31;4992041;28;20037;-60
2023/07/08 09:59:31;;;;;;;0.00;0.00;;;;;;;35.81;28.12;101747.59;5009900;28;20045;-60
2023/07/08 10:01:58;;;;;;;0.00;0.00;;;;;;;35.92;27.87;101746.63;5013015;28;20069;-59
2023/07/08 10:04:24;;;;;;;0.00;0.00;;;;;;;35.61;29.06;101744.06;4991234;28;20414;-60
2023/07/08 10:06:49;;;;;;;0.00;0.00;;;;;;;36.28;28.10;101742.38;5008276;28;20022;-60
2023/07/08 10:09:23;;;;;;;0.00;0.00;;;;;;;35.96;28.20;101735.47;5000785;28;20523;-59
2023/07/08 10:11:58;;;;;;;0.00;0.00;;;;;;;36.34;27.23;101745.66;5001621;28;20437;-60
2023/07/08 10:14:31;;;;;;;0.00;0.00;;;;;;;36.37;27.75;101739.28;5004385;28;20454;-59
2023/07/08 10:16:57;;;;;;;0.00;0.00;;;;;;;36.04;27.38;101748.41;5016394;28;20449;-60
2023/07/08 10:19:22;;;;;;;0.00;0.00;;;;;;;36.09;26.03;101751.69;5007085;28;20048;-64
2023/07/08 10:21:57;;;;;;;0.00;0.00;;;;;;;36.35;27.10;101764.88;4993361;28;20101;-60
2023/07/08 10:24:41;;;;;;;0.00;0.00;;;;;;;36.90;25.42;101764.09;4987214;28;20044;-60
2023/07/08 10:27:16;;;;;;;0.00;0.00;;;;;;;36.54;24.94;101755.59;5010364;28;20038;-60
2023/07/08 10:30:01;;;;;;;0.00;0.00;;;;;;;36.05;26.64;101752.84;5008058;28;20124;-60
2023/07/08 10:32:45;;;;;;;0.00;0.00;;;;;;;37.17;25.35;101752.78;5004619;28;20045;-60
2023/07/08 10:35:18;;;;;;;0.00;0.00;;;;;;;37.16;24.58;101753.97;5001974;28;20702;-59
2023/07/08 10:38:03;;;;;;;0.00;0.00;;;;;;;36.96;25.45;101745.75;5006359;28;20556;-59
2023/07/08 10:40:53;;;;;;;0.00;0.00;;;;;;;37.04;23.97;101735.41;5006704;28;20542;-59
2023/07/08 10:43:46;;;;;;;0.00;0.00;;;;;;;37.06;24.68;101746.25;5006754;28;20034;-58
2023/07/08 10:46:11;;;;;;;0.00;0.00;;;;;;;37.17;24.70;101747.19;5004562;28;20026;-59
2023/07/08 10:48:50;;;;;;;0.00;0.00;;;;;;;37.75;25.18;101740.56;5006508;28;20543;-61
2023/07/08 10:51:40;;;;;;;0.00;0.00;;;;;;;37.60;24.77;101741.63;5004767;28;20038;-60
2023/07/08 10:54:24;;;;;;;0.00;0.00;;;;;;;37.91;23.36;101747.94;5006401;28;20034;-59
2023/07/08 10:57:17;;;;;;;0.00;0.00;;;;;;;38.01;24.80;101747.22;5004077;28;20033;-60
2023/07/08 10:59:54;;;;;;;0.00;0.00;;;;;;;37.42;24.52;101732.25;5005994;28;20141;-59
2023/07/08 11:03:03;;;;;;;0.00;0.00;;;;;;;38.41;23.36;101745.09;4988199;28;20079;-59
2023/07/08 11:05:41;;;;;;;0.00;0.00;;;;;;;38.11;24.07;101746.50;5003365;28;20072;-61
2023/07/08 11:08:20;;;;;;;0.00;0.00;;;;;;;37.98;23.18;101737.56;5003183;28;20038;-59
2023/07/08 11:10:52;;;;;;;0.00;0.00;;;;;;;38.49;23.53;101743.13;5005884;28;20034;-59
2023/07/08 11:13:21;;;;;;;0.00;0.00;;;;;;;38.93;23.21;101740.97;5005600;28;20792;-59
2023/07/08 11:15:53;;;;;;;0.00;0.00;;;;;;;39.42;22.69;101734.66;5006856;28;20129;-59
2023/07/08 11:18:24;;;;;;;0.00;0.00;;;;;;;38.48;23.54;101733.91;5005832;28;20045;-59
2023/07/08 11:21:16;;;;;;;0.00;0.00;;;;;;;38.62;23.22;101744.41;5003960;28;20054;-60
2023/07/08 11:24:07;;;;;;;0.00;0.00;;;;;;;38.90;22.89;101736.13;5007086;28;20092;-58
2023/07/08 11:26:51;;;;;;;0.00;0.00;;;;;;;38.72;22.45;101734.44;5008803;28;20069;-60
2023/07/08 11:29:22;;;;;;;0.00;0.00;;;;;;;38.85;21.73;101732.88;5005510;28;20041;-60
2023/07/08 11:31:49;;;;;;;0.00;0.00;;;;;;;38.74;22.05;101726.44;5009786;28;20033;-60
2023/07/08 11:34:16;;;;;;;0.00;0.00;;;;;;;39.11;22.24;101718.53;5009502;28;20092;-59